createdAt,value
2018-08-19T00:01:10.675Z,9.70
2018-08-19T00:03:38.858Z,9.53
2018-08-19T00:06:07.191Z,9.03
2018-08-19T00:08:35.591Z,8.68
2018-08-19T00:11:06.789Z,8.40
2018-08-19T00:13:36.025Z,8.13
2018-08-19T00:16:04.982Z,8.13
2018-08-19T00:18:34.963Z,7.53
2018-08-19T00:21:04.593Z,8.37
2018-08-19T00:23:38.729Z,9.17
2018-08-19T00:26:07.189Z,8.50
2018-08-19T00:28:35.573Z,9.37
2018-08-19T00:31:05.421Z,11.10
2018-08-19T00:33:35.041Z,9.30
2018-08-19T00:36:17.597Z,8.73
2018-08-19T00:38:46.561Z,9.75
2018-08-19T00:41:14.930Z,9.43
2018-08-19T00:43:43.360Z,8.50
2018-08-19T00:46:19.002Z,10.85
2018-08-19T00:48:47.419Z,8.23
2018-08-19T00:51:16.045Z,8.57
2018-08-19T00:53:44.478Z,9.43
2018-08-19T00:56:13.106Z,10.13
2018-08-19T00:58:41.574Z,11.03
2018-08-19T01:01:20.729Z,9.73
2018-08-19T01:03:54.373Z,10.70
2018-08-19T01:06:23.304Z,10.53
2018-08-19T01:08:51.992Z,9.90
2018-08-19T01:14:13.313Z,11.40
2018-08-19T01:16:41.858Z,10.15
2018-08-19T01:19:10.733Z,10.00
2018-08-19T01:21:39.079Z,10.80
2018-08-19T01:24:10.222Z,9.87
2018-08-19T01:26:40.944Z,10.65
2018-08-19T01:29:10.533Z,8.77
2018-08-19T01:31:38.975Z,9.50
2018-08-19T01:34:09.426Z,11.13
2018-08-19T01:36:38.154Z,10.50
2018-08-19T01:39:08.340Z,10.23
2018-08-19T01:41:37.661Z,10.87
2018-08-19T01:44:11.722Z,10.83
2018-08-19T01:46:42.813Z,10.53
2018-08-19T01:49:11.593Z,9.50
2018-08-19T01:51:41.415Z,10.30
2018-08-19T01:54:14.833Z,10.70
2018-08-19T01:56:43.705Z,11.57
2018-08-19T01:59:12.018Z,11.00
2018-08-19T02:01:50.529Z,14.03
2018-08-19T02:04:19.346Z,10.90
2018-08-19T02:06:48.021Z,10.68
2018-08-19T02:09:17.693Z,11.80
2018-08-19T02:11:54.774Z,13.10
2018-08-19T02:14:23.457Z,12.03
2018-08-19T02:16:53.257Z,11.05
2018-08-19T02:19:21.609Z,12.13
2018-08-19T02:21:51.165Z,11.83
2018-08-19T02:24:19.522Z,11.07
2018-08-19T02:26:47.925Z,11.00
2018-08-19T02:29:34.725Z,13.47
2018-08-19T02:32:04.259Z,10.70
2018-08-19T02:34:34.661Z,13.17
2018-08-19T02:37:11.584Z,11.80
2018-08-19T02:39:42.901Z,12.90
2018-08-19T02:42:25.445Z,13.10
2018-08-19T02:45:01.157Z,13.28
2018-08-19T02:47:29.381Z,12.83
2018-08-19T02:49:57.489Z,13.80
2018-08-19T02:52:28.546Z,13.65
2018-08-19T02:54:58.662Z,12.20
2018-08-19T02:57:28.305Z,12.60
2018-08-19T02:59:57.161Z,12.90
2018-08-19T03:02:31.179Z,15.17
2018-08-19T03:05:00.552Z,16.23
2018-08-19T03:07:30.002Z,15.83
2018-08-19T03:10:04.254Z,15.97
2018-08-19T03:12:32.387Z,16.50
2018-08-19T03:15:00.519Z,16.70
2018-08-19T03:17:29.813Z,17.40
2018-08-19T03:19:59.290Z,15.83
2018-08-19T03:22:28.025Z,16.90
2018-08-19T03:24:58.144Z,17.20
2018-08-19T03:27:26.605Z,17.63
2018-08-19T03:29:56.561Z,18.07
2018-08-19T03:32:25.401Z,17.73
2018-08-19T03:35:04.058Z,19.57
2018-08-19T03:37:32.549Z,16.90
2018-08-19T03:40:01.298Z,19.48
2018-08-19T03:42:29.989Z,22.40
2018-08-19T03:45:21.994Z,19.90
2018-08-19T03:47:51.839Z,26.55
2018-08-19T03:50:21.377Z,20.00
2018-08-19T03:52:50.508Z,21.73
2018-08-19T03:55:24.209Z,23.60
2018-08-19T03:57:53.266Z,20.30
2018-08-19T04:00:21.772Z,24.10
2018-08-19T04:02:50.509Z,22.98
2018-08-19T04:05:24.709Z,23.43
2018-08-19T04:07:53.172Z,26.80
2018-08-19T04:10:21.611Z,25.00
2018-08-19T04:12:50.881Z,25.88
2018-08-19T04:15:19.613Z,24.05
2018-08-19T04:17:47.738Z,32.07
2018-08-19T04:20:16.599Z,28.27
2018-08-19T04:22:45.097Z,30.70
2018-08-19T04:28:04.764Z,27.70
2018-08-19T04:30:33.198Z,26.93
2018-08-19T04:33:01.781Z,29.67
2018-08-19T04:35:30.225Z,24.60
2018-08-19T04:37:59.041Z,25.93
2018-08-19T04:40:27.149Z,26.80
2018-08-19T04:42:55.894Z,25.90
2018-08-19T04:45:24.333Z,26.17
2018-08-19T04:47:53.206Z,25.45
2018-08-19T04:50:21.925Z,23.85
2018-08-19T04:52:50.373Z,31.57
2018-08-19T04:55:19.073Z,24.77
2018-08-19T04:57:48.582Z,28.67
2018-08-19T05:00:16.717Z,30.37
2018-08-19T05:02:45.505Z,24.93
2018-08-19T05:05:14.138Z,25.47
2018-08-19T05:07:42.586Z,25.97
2018-08-19T05:10:11.266Z,23.90
2018-08-19T05:12:40.317Z,24.95
2018-08-19T05:15:09.043Z,24.45
2018-08-19T05:17:37.497Z,28.47
2018-08-19T05:20:20.609Z,23.83
2018-08-19T05:22:49.058Z,27.00
2018-08-19T05:25:17.166Z,25.03
2018-08-19T05:27:47.177Z,25.25
2018-08-19T05:30:15.614Z,27.67
2018-08-19T05:32:48.281Z,24.83
2018-08-19T05:35:16.686Z,24.77
2018-08-19T05:37:45.425Z,23.90
2018-08-19T05:40:14.049Z,24.80
2018-08-19T05:42:43.293Z,26.73
2018-08-19T05:45:12.253Z,27.48
2018-08-19T05:47:40.997Z,27.48
2018-08-19T05:50:09.338Z,24.80
2018-08-19T05:52:38.390Z,28.55
2018-08-19T05:55:07.360Z,24.40
2018-08-19T05:57:36.557Z,24.63
2018-08-19T06:00:11.530Z,24.53
2018-08-19T06:02:43.038Z,24.98
2018-08-19T06:05:11.481Z,26.40
2018-08-19T06:07:40.437Z,23.32
2018-08-19T06:10:08.769Z,24.60
2018-08-19T06:12:37.513Z,24.77
2018-08-19T06:15:06.317Z,25.40
2018-08-19T06:17:34.767Z,24.60
2018-08-19T06:20:03.174Z,26.17
2018-08-19T06:22:37.098Z,25.63
2018-08-19T06:25:05.533Z,23.87
2018-08-19T06:27:39.693Z,24.80
2018-08-19T06:30:07.898Z,25.60
2018-08-19T06:32:36.590Z,26.10
2018-08-19T06:35:05.349Z,25.83
2018-08-19T06:37:34.301Z,27.30
2018-08-19T06:40:02.699Z,27.87
2018-08-19T06:42:31.453Z,24.60
2018-08-19T06:45:00.173Z,27.75
2018-08-19T06:50:26.847Z,24.90
2018-08-19T06:52:55.581Z,27.80
2018-08-19T06:55:24.294Z,26.23
2018-08-19T06:57:52.674Z,26.35
2018-08-19T07:00:24.629Z,25.83
2018-08-19T07:02:53.318Z,24.77
2018-08-19T07:05:21.431Z,23.87
2018-08-19T07:07:50.091Z,22.50
2018-08-19T07:10:29.436Z,24.03
2018-08-19T07:13:05.465Z,24.63
2018-08-19T07:15:34.298Z,26.07
2018-08-19T07:18:02.773Z,24.73
2018-08-19T07:20:31.053Z,24.47
2018-08-19T07:22:59.518Z,22.40
2018-08-19T07:25:28.094Z,23.27
2018-08-19T07:27:56.853Z,21.43
2018-08-19T07:30:25.454Z,21.23
2018-08-19T07:32:54.149Z,19.00
2018-08-19T07:35:22.717Z,19.20
2018-08-19T07:37:51.134Z,18.02
2018-08-19T07:40:19.566Z,20.37
2018-08-19T07:42:48.622Z,19.75
2018-08-19T07:45:17.361Z,18.87
2018-08-19T07:47:45.788Z,17.80
2018-08-19T07:50:14.163Z,19.13
2018-08-19T07:52:42.626Z,17.60
2018-08-19T07:55:11.300Z,15.90
2018-08-19T07:57:42.042Z,14.43
2018-08-19T08:00:23.230Z,17.47
2018-08-19T08:02:53.225Z,13.75
2018-08-19T08:05:21.577Z,14.77
2018-08-19T08:07:50.430Z,13.67
2018-08-19T08:10:18.773Z,16.40
2018-08-19T08:12:53.998Z,14.30
2018-08-19T08:15:22.742Z,14.60
2018-08-19T08:17:51.506Z,15.43
2018-08-19T08:20:31.298Z,16.83
2018-08-19T08:23:02.219Z,16.60
2018-08-19T08:25:30.665Z,13.87
2018-08-19T08:27:59.662Z,13.60
2018-08-19T08:30:28.347Z,15.27
2018-08-19T08:32:56.825Z,13.40
2018-08-19T08:35:25.602Z,14.37
2018-08-19T08:37:53.932Z,13.62
2018-08-19T08:40:22.525Z,14.07
2018-08-19T08:42:51.028Z,15.80
2018-08-19T08:45:28.229Z,12.20
2018-08-19T08:47:56.371Z,11.30
2018-08-19T08:50:26.057Z,12.20
2018-08-19T08:52:54.354Z,9.77
2018-08-19T08:55:22.709Z,15.43
2018-08-19T08:57:51.107Z,9.28
2018-08-19T09:00:20.293Z,9.50
2018-08-19T09:02:48.678Z,10.37
2018-08-19T09:05:17.048Z,10.40
2018-08-19T09:07:45.444Z,13.00
2018-08-19T09:10:14.374Z,12.90
2018-08-19T09:12:52.345Z,10.40
2018-08-19T09:15:20.445Z,14.27
2018-08-19T09:17:49.178Z,12.90
2018-08-19T09:20:17.457Z,11.90
2018-08-19T09:22:46.604Z,9.80
2018-08-19T09:25:14.928Z,12.07
2018-08-19T09:27:43.985Z,10.47
2018-08-19T09:30:20.193Z,11.37
2018-08-19T09:32:59.023Z,10.23
2018-08-19T09:35:29.433Z,13.00
2018-08-19T09:38:02.993Z,13.57
2018-08-19T09:40:32.257Z,13.27
2018-08-19T09:43:00.719Z,16.50
2018-08-19T09:45:29.149Z,12.93
2018-08-19T09:47:58.067Z,14.00
2018-08-19T09:50:26.563Z,13.57
2018-08-19T09:52:55.258Z,13.77
2018-08-19T09:55:32.873Z,14.63
2018-08-19T09:58:01.726Z,14.30
2018-08-19T10:00:35.623Z,13.60
2018-08-19T10:03:03.789Z,14.43
2018-08-19T10:05:33.925Z,15.03
2018-08-19T10:08:02.070Z,14.47
2018-08-19T10:10:33.573Z,12.80
2018-08-19T10:13:02.339Z,13.30
2018-08-19T10:15:30.815Z,12.73
2018-08-19T10:17:59.195Z,12.83
2018-08-19T10:20:27.710Z,11.60
2018-08-19T10:22:57.149Z,11.60
2018-08-19T10:25:25.597Z,12.03
2018-08-19T10:27:55.170Z,10.90
2018-08-19T10:30:23.538Z,10.40
2018-08-19T10:32:59.313Z,8.60
2018-08-19T10:35:27.865Z,9.63
2018-08-19T10:37:56.569Z,10.10
2018-08-19T10:40:25.064Z,10.87
2018-08-19T10:42:58.142Z,9.50
2018-08-19T10:45:26.860Z,9.23
2018-08-19T10:47:55.302Z,11.20
2018-08-19T10:50:26.523Z,10.20
2018-08-19T10:52:54.650Z,9.17
2018-08-19T10:55:23.102Z,9.40
2018-08-19T10:57:51.526Z,8.85
2018-08-19T11:00:26.266Z,8.83
2018-08-19T11:02:55.349Z,10.07
2018-08-19T11:05:23.978Z,8.50
2018-08-19T11:07:52.669Z,8.43
2018-08-19T11:10:22.133Z,8.30
2018-08-19T11:12:54.767Z,7.90
2018-08-19T11:15:32.786Z,8.43
2018-08-19T11:18:18.238Z,8.27
2018-08-19T11:20:49.921Z,8.15
2018-08-19T11:23:23.106Z,7.60
2018-08-19T11:25:52.473Z,7.35
2018-08-19T11:28:43.468Z,7.20
2018-08-19T11:31:20.677Z,7.80
2018-08-19T11:33:49.255Z,6.80
2018-08-19T11:36:17.681Z,7.97
2018-08-19T11:38:48.530Z,9.30
2018-08-19T11:41:17.857Z,7.47
2018-08-19T11:43:46.921Z,8.28
2018-08-19T11:46:15.659Z,7.43
2018-08-19T11:48:44.028Z,7.10
2018-08-19T11:51:13.165Z,7.37
2018-08-19T11:53:41.261Z,7.87
2018-08-19T11:56:10.182Z,7.03
2018-08-19T11:58:47.477Z,7.22
2018-08-19T12:01:16.981Z,8.73
2018-08-19T12:03:57.635Z,7.60
2018-08-19T12:06:30.801Z,6.97
2018-08-19T12:09:00.505Z,7.13
2018-08-19T12:11:31.417Z,7.23
2018-08-19T12:14:02.918Z,10.30
2018-08-19T12:16:31.470Z,8.00
2018-08-19T12:19:05.749Z,8.53
2018-08-19T12:21:38.054Z,9.00
2018-08-19T12:24:18.504Z,9.00
2018-08-19T12:26:47.042Z,8.57
2018-08-19T12:29:15.477Z,7.70
2018-08-19T12:31:44.493Z,7.55
2018-08-19T12:34:12.884Z,8.80
2018-08-19T12:36:41.361Z,9.33
2018-08-19T12:39:10.313Z,9.30
2018-08-19T12:41:44.307Z,10.93
2018-08-19T12:44:12.969Z,8.70
2018-08-19T12:46:48.677Z,8.15
2018-08-19T12:49:16.929Z,9.30
2018-08-19T12:51:45.677Z,8.83
2018-08-19T12:54:13.857Z,8.80
2018-08-19T12:56:42.482Z,8.63
2018-08-19T12:59:11.461Z,9.60
2018-08-19T13:01:39.906Z,10.43
2018-08-19T13:04:08.086Z,9.50
2018-08-19T13:06:37.410Z,12.05
2018-08-19T13:09:07.462Z,9.70
2018-08-19T13:11:35.901Z,10.60
2018-08-19T13:14:04.492Z,9.13
2018-08-19T13:16:33.526Z,10.30
2018-08-19T13:19:02.206Z,9.60
2018-08-19T13:21:30.661Z,9.03
2018-08-19T13:23:59.348Z,9.80
2018-08-19T13:26:27.781Z,9.63
2018-08-19T13:28:56.842Z,10.43
2018-08-19T13:31:30.520Z,8.87
2018-08-19T13:33:59.214Z,9.30
2018-08-19T13:36:27.645Z,9.10
2018-08-19T13:38:56.350Z,9.00
2018-08-19T13:41:24.802Z,9.53
2018-08-19T13:43:53.555Z,8.40
2018-08-19T13:46:22.174Z,9.37
2018-08-19T13:48:50.948Z,9.40
2018-08-19T13:51:19.477Z,8.57
2018-08-19T13:53:47.941Z,9.03
2018-08-19T13:56:16.398Z,8.93
2018-08-19T13:58:44.854Z,8.70
2018-08-19T14:01:13.378Z,7.70
2018-08-19T14:03:41.817Z,9.03
2018-08-19T14:06:10.469Z,9.07
2018-08-19T14:08:39.129Z,8.45
2018-08-19T14:11:08.341Z,9.37
2018-08-19T14:13:37.346Z,8.83
2018-08-19T14:16:05.470Z,9.60
2018-08-19T14:18:33.594Z,9.67
2018-08-19T14:21:02.122Z,10.57
2018-08-19T14:23:30.566Z,9.47
2018-08-19T14:25:59.293Z,10.65
2018-08-19T14:28:27.751Z,9.40
2018-08-19T14:30:56.414Z,10.40
2018-08-19T14:33:24.854Z,10.40
2018-08-19T14:35:53.737Z,10.00
2018-08-19T14:38:22.427Z,10.30
2018-08-19T14:40:51.462Z,9.80
2018-08-19T14:43:19.580Z,10.60
2018-08-19T14:45:47.669Z,9.50
2018-08-19T14:48:16.130Z,11.40
2018-08-19T14:50:45.202Z,10.43
2018-08-19T14:53:13.488Z,12.20
2018-08-19T14:55:41.829Z,10.18
2018-08-19T14:58:10.263Z,11.07
2018-08-19T15:00:38.662Z,10.90
2018-08-19T15:03:07.341Z,12.17
2018-08-19T15:05:35.789Z,11.27
2018-08-19T15:08:08.678Z,11.20
2018-08-19T15:10:37.593Z,10.80
2018-08-19T15:13:05.718Z,10.73
2018-08-19T15:15:34.089Z,11.20
2018-08-19T15:18:02.569Z,11.00
2018-08-19T15:20:33.577Z,10.40
2018-08-19T15:23:13.485Z,11.23
2018-08-19T15:25:42.174Z,12.03
2018-08-19T15:28:10.807Z,11.90
2018-08-19T15:30:40.734Z,10.77
2018-08-19T15:33:09.960Z,11.77
2018-08-19T15:35:38.845Z,10.97
2018-08-19T15:38:07.686Z,12.07
2018-08-19T15:40:42.604Z,11.00
2018-08-19T15:43:12.633Z,10.87
2018-08-19T15:45:41.362Z,10.90
2018-08-19T15:48:10.037Z,10.67
2018-08-19T15:50:38.679Z,12.40
2018-08-19T15:53:08.683Z,12.10
2018-08-19T15:55:38.397Z,11.33
2018-08-19T15:58:06.698Z,11.53
2018-08-19T16:00:38.006Z,10.97
2018-08-19T16:03:07.017Z,11.30
2018-08-19T16:05:38.022Z,10.67
2018-08-19T16:08:06.886Z,11.33
2018-08-19T16:10:35.597Z,12.53
2018-08-19T16:13:05.833Z,12.60
2018-08-19T16:15:34.793Z,10.60
2018-08-19T16:18:03.292Z,11.33
2018-08-19T16:20:31.479Z,11.50
2018-08-19T16:23:00.079Z,12.13
2018-08-19T16:25:28.472Z,11.50
2018-08-19T16:27:57.129Z,15.93
2018-08-19T16:30:25.505Z,13.00
2018-08-19T16:32:53.737Z,17.65
2018-08-19T16:35:22.193Z,12.03
2018-08-19T16:37:51.070Z,11.90
2018-08-19T16:40:19.198Z,11.10
2018-08-19T16:42:47.938Z,11.63
2018-08-19T16:45:16.285Z,10.33
2018-08-19T16:47:44.676Z,11.00
2018-08-19T16:50:13.477Z,10.00
2018-08-19T16:52:42.375Z,11.08
2018-08-19T16:55:10.718Z,9.83
2018-08-19T16:57:39.530Z,10.03
2018-08-19T17:00:08.951Z,10.57
2018-08-19T17:02:38.352Z,10.20
2018-08-19T17:05:16.569Z,10.23
2018-08-19T17:07:44.950Z,9.53
2018-08-19T17:10:13.493Z,9.20
2018-08-19T17:12:42.153Z,9.97
2018-08-19T17:15:10.889Z,11.17
2018-08-19T17:17:39.851Z,9.48
2018-08-19T17:20:08.384Z,9.73
2018-08-19T17:22:38.182Z,10.45
2018-08-19T17:25:06.331Z,9.73
2018-08-19T17:27:34.587Z,10.30
2018-08-19T17:30:04.049Z,11.13
2018-08-19T17:32:32.569Z,9.67
2018-08-19T17:35:01.137Z,10.53
2018-08-19T17:37:29.573Z,9.93
2018-08-19T17:39:57.763Z,9.17
2018-08-19T17:42:26.338Z,11.10
2018-08-19T17:44:55.100Z,10.60
2018-08-19T17:47:23.785Z,10.93
2018-08-19T17:49:52.321Z,11.03
2018-08-19T17:52:20.711Z,10.00
2018-08-19T17:54:49.586Z,10.65
2018-08-19T17:57:17.854Z,10.13
2018-08-19T17:59:46.134Z,10.20
2018-08-19T18:02:14.769Z,9.93
2018-08-19T18:04:46.185Z,9.43
2018-08-19T18:07:18.519Z,9.20
2018-08-19T18:09:52.441Z,9.83
2018-08-19T18:12:21.825Z,11.30
2018-08-19T18:14:50.430Z,9.27
2018-08-19T18:17:19.298Z,9.70
2018-08-19T18:19:48.530Z,9.50
2018-08-19T18:22:19.381Z,8.70
2018-08-19T18:24:56.305Z,9.60
2018-08-19T18:27:24.688Z,10.90
2018-08-19T18:29:53.411Z,8.83
2018-08-19T18:32:23.731Z,11.70
2018-08-19T18:34:52.453Z,9.37
2018-08-19T18:37:21.097Z,8.70
2018-08-19T18:39:49.713Z,9.63
2018-08-19T18:42:33.637Z,10.37
2018-08-19T18:45:06.381Z,9.63
2018-08-19T18:47:35.189Z,8.00
2018-08-19T18:50:08.066Z,12.37
2018-08-19T18:52:36.181Z,10.80
2018-08-19T18:55:04.950Z,10.17
2018-08-19T18:57:33.361Z,9.60
2018-08-19T19:00:01.801Z,9.83
2018-08-19T19:08:15.529Z,8.87
2018-08-19T19:13:38.474Z,9.75
2018-08-19T19:16:06.913Z,9.10
2018-08-19T19:18:35.436Z,11.43
2018-08-19T19:21:06.569Z,9.37
2018-08-19T19:23:38.633Z,9.90
2018-08-19T19:26:07.720Z,12.13
2018-08-19T19:28:36.390Z,10.03
2018-08-19T19:31:09.838Z,9.20
2018-08-19T19:33:38.342Z,8.77
2018-08-19T19:36:15.917Z,11.00
2018-08-19T19:38:50.411Z,9.07
2018-08-19T19:41:27.773Z,9.63
2018-08-19T19:43:56.212Z,12.23
2018-08-19T19:46:26.238Z,11.83
2018-08-19T19:48:54.883Z,12.93
2018-08-19T19:51:23.433Z,14.37
2018-08-19T19:53:51.597Z,11.40
2018-08-19T19:56:20.394Z,11.67
2018-08-19T19:58:50.010Z,10.53
2018-08-19T20:01:18.712Z,10.93
2018-08-19T20:03:54.293Z,11.97
2018-08-19T20:06:23.785Z,10.33
2018-08-19T20:08:52.586Z,12.70
2018-08-19T20:11:26.953Z,12.37
2018-08-19T20:13:59.804Z,8.60
2018-08-19T20:16:28.313Z,11.90
2018-08-19T20:18:56.765Z,12.13
2018-08-19T20:21:26.425Z,10.10
2018-08-19T20:23:55.822Z,9.80
2018-08-19T20:26:25.061Z,9.60
2018-08-19T20:28:56.573Z,10.07
2018-08-19T20:31:28.814Z,9.50
2018-08-19T20:33:57.326Z,10.20
2018-08-19T20:36:25.506Z,9.63
2018-08-19T20:38:53.613Z,10.20
2018-08-19T20:41:22.305Z,10.70
2018-08-19T20:43:50.637Z,13.80
2018-08-19T20:46:19.363Z,9.50
2018-08-19T20:48:48.209Z,9.80
2018-08-19T20:51:16.353Z,10.80
2018-08-19T20:53:44.785Z,10.93
2018-08-19T20:56:23.516Z,10.10
2018-08-19T20:58:51.621Z,10.10
2018-08-19T21:01:25.360Z,10.03
2018-08-19T21:03:53.977Z,10.03
2018-08-19T21:06:22.789Z,10.70
2018-08-19T21:08:51.665Z,12.30
2018-08-19T21:11:20.402Z,10.85
2018-08-19T21:13:48.521Z,9.25
2018-08-19T21:16:16.954Z,11.10
2018-08-19T21:18:45.581Z,9.73
2018-08-19T21:21:14.056Z,11.60
2018-08-19T21:23:42.786Z,10.13
2018-08-19T21:26:11.085Z,9.93
2018-08-19T21:28:39.527Z,12.30
2018-08-19T21:31:07.960Z,11.67
2018-08-19T21:33:36.703Z,12.40
2018-08-19T21:36:05.132Z,10.87
2018-08-19T21:38:33.589Z,10.40
2018-08-19T21:41:02.037Z,10.83
2018-08-19T21:43:31.245Z,10.57
2018-08-19T21:46:00.000Z,10.30
2018-08-19T21:48:28.677Z,10.07
2018-08-19T21:50:57.109Z,11.73
2018-08-19T21:53:25.576Z,10.97
2018-08-19T21:55:54.006Z,10.20
2018-08-19T21:58:22.989Z,14.73
2018-08-19T22:00:54.824Z,13.07
2018-08-19T22:03:28.813Z,9.25
2018-08-19T22:05:57.296Z,10.23
2018-08-19T22:08:25.473Z,10.20
2018-08-19T22:10:53.629Z,9.53
2018-08-19T22:13:21.793Z,12.53
2018-08-19T22:15:49.885Z,9.75
2018-08-19T22:18:20.319Z,10.80
2018-08-19T22:21:06.944Z,10.37
2018-08-19T22:23:40.321Z,9.47
2018-08-19T22:26:09.413Z,11.07
2018-08-19T22:28:39.271Z,9.85
2018-08-19T22:31:19.681Z,12.30
2018-08-19T22:33:50.950Z,11.67
2018-08-19T22:36:20.118Z,10.08
2018-08-19T22:38:48.569Z,11.00
2018-08-19T22:41:19.765Z,11.67
2018-08-19T22:43:48.301Z,12.37
2018-08-19T22:46:16.873Z,11.83
2018-08-19T22:48:45.807Z,10.80
2018-08-19T22:51:14.910Z,10.73
2018-08-19T22:53:43.359Z,12.80
2018-08-19T22:56:11.781Z,12.23
2018-08-19T22:58:40.253Z,9.80
2018-08-19T23:01:08.658Z,11.80
2018-08-19T23:03:36.993Z,9.63
2018-08-19T23:06:05.712Z,10.50
2018-08-19T23:08:34.474Z,13.10
2018-08-19T23:11:03.953Z,10.23
2018-08-19T23:13:43.750Z,10.60
2018-08-19T23:16:12.894Z,10.03
2018-08-19T23:18:42.466Z,11.27
2018-08-19T23:21:11.038Z,13.27
2018-08-19T23:23:39.467Z,11.57
2018-08-19T23:26:08.001Z,10.27
2018-08-19T23:28:36.757Z,10.83
2018-08-19T23:31:05.329Z,10.93
2018-08-19T23:33:33.528Z,13.77
2018-08-19T23:36:02.170Z,13.03
2018-08-19T23:38:30.842Z,9.90
2018-08-19T23:40:59.277Z,10.83
2018-08-19T23:43:27.783Z,10.30
2018-08-19T23:45:56.274Z,11.28
2018-08-19T23:48:24.917Z,11.17
2018-08-19T23:50:53.025Z,13.90
2018-08-19T23:53:22.002Z,10.18
2018-08-19T23:55:50.793Z,11.83
2018-08-19T23:58:18.905Z,10.20
